createdAt,value
2022-10-29T00:00:55.623Z,43.65
2022-10-29T00:03:24.850Z,44.95
2022-10-29T00:05:57.388Z,47.72
2022-10-29T00:08:25.891Z,45.47
2022-10-29T00:10:54.054Z,50.40
2022-10-29T00:13:22.186Z,46.17
2022-10-29T00:15:50.282Z,46.00
2022-10-29T00:18:19.657Z,49.80
2022-10-29T00:20:48.499Z,55.42
2022-10-29T00:23:16.754Z,58.53
2022-10-29T00:25:44.863Z,55.55
2022-10-29T00:28:12.886Z,54.28
2022-10-29T00:30:40.896Z,56.33
2022-10-29T00:33:09.016Z,57.17
2022-10-29T00:35:38.532Z,54.70
2022-10-29T00:38:06.506Z,48.88
2022-10-29T00:40:37.819Z,50.47
2022-10-29T00:43:15.796Z,43.63
2022-10-29T00:45:49.942Z,40.55
2022-10-29T00:48:18.273Z,42.13
2022-10-29T00:50:50.090Z,42.00
2022-10-29T00:53:21.602Z,64.55
2022-10-29T00:55:49.626Z,61.45
2022-10-29T00:58:17.834Z,45.65
2022-10-29T01:00:46.250Z,47.95
2022-10-29T01:03:14.581Z,42.70
2022-10-29T01:05:44.394Z,41.88
2022-10-29T01:08:15.254Z,40.80
2022-10-29T01:10:57.718Z,45.40
2022-10-29T01:13:42.604Z,47.53
2022-10-29T01:16:21.097Z,42.45
2022-10-29T01:18:54.528Z,40.17
2022-10-29T01:21:44.805Z,42.20
2022-10-29T01:24:48.191Z,43.08
2022-10-29T01:27:41.049Z,38.33
2022-10-29T01:30:18.089Z,48.13
2022-10-29T01:33:01.902Z,40.13
2022-10-29T01:35:38.185Z,42.47
2022-10-29T01:38:15.781Z,37.65
2022-10-29T01:40:50.957Z,36.35
2022-10-29T01:43:23.924Z,47.35
2022-10-29T01:45:57.481Z,56.72
2022-10-29T01:48:33.236Z,55.45
2022-10-29T01:51:06.024Z,37.53
2022-10-29T01:53:37.508Z,38.50
2022-10-29T01:56:05.805Z,47.95
2022-10-29T01:58:36.500Z,43.25
2022-10-29T02:01:14.529Z,43.40
2022-10-29T02:03:53.875Z,57.50
2022-10-29T02:06:33.909Z,52.22
2022-10-29T02:09:10.301Z,64.05
2022-10-29T02:11:47.560Z,57.22
2022-10-29T02:14:21.849Z,60.42
2022-10-29T02:16:50.650Z,45.72
2022-10-29T02:19:20.238Z,60.47
2022-10-29T02:21:48.328Z,58.55
2022-10-29T02:24:16.395Z,39.90
2022-10-29T02:26:44.407Z,42.00
2022-10-29T02:29:12.448Z,35.08
2022-10-29T02:31:40.471Z,34.97
2022-10-29T02:34:08.570Z,46.35
2022-10-29T02:36:38.180Z,40.97
2022-10-29T02:39:06.318Z,43.67
2022-10-29T02:41:34.340Z,58.70
2022-10-29T02:44:02.312Z,53.75
2022-10-29T02:46:30.401Z,51.90
2022-10-29T02:48:58.500Z,44.30
2022-10-29T02:51:26.456Z,43.35
2022-10-29T02:53:55.884Z,43.10
2022-10-29T02:56:23.861Z,38.58
2022-10-29T02:58:51.881Z,41.63
2022-10-29T03:01:20.048Z,41.72
2022-10-29T03:03:48.082Z,41.47
2022-10-29T03:06:16.742Z,43.13
2022-10-29T03:08:45.362Z,52.17
2022-10-29T03:11:15.381Z,60.42
2022-10-29T03:13:43.408Z,67.65
2022-10-29T03:16:11.457Z,72.90
2022-10-29T03:18:39.495Z,83.47
2022-10-29T03:21:07.420Z,87.75
2022-10-29T03:23:35.412Z,79.50
2022-10-29T03:26:03.565Z,76.68
2022-10-29T03:28:33.001Z,65.90
2022-10-29T03:31:01.057Z,102.80
2022-10-29T03:33:29.019Z,79.60
2022-10-29T03:35:58.678Z,61.75
2022-10-29T03:38:27.062Z,63.78
2022-10-29T03:40:55.108Z,58.00
2022-10-29T03:43:23.743Z,65.22
2022-10-29T03:45:53.751Z,52.85
2022-10-29T03:48:21.949Z,63.67
2022-10-29T03:50:56.568Z,73.93
2022-10-29T03:53:25.349Z,74.20
2022-10-29T03:55:53.775Z,72.15
2022-10-29T03:58:22.572Z,63.03
2022-10-29T04:01:00.105Z,71.10
2022-10-29T04:03:30.488Z,92.55
2022-10-29T04:05:59.509Z,75.65
2022-10-29T04:08:27.571Z,65.28
2022-10-29T04:10:55.670Z,89.97
2022-10-29T04:13:23.701Z,103.78
2022-10-29T04:15:55.387Z,107.90
2022-10-29T04:18:25.273Z,111.65
2022-10-29T04:29:18.524Z,61.83
2022-10-29T04:31:46.509Z,85.28
2022-10-29T04:34:15.847Z,56.90
2022-10-29T04:36:43.922Z,55.50
2022-10-29T04:39:11.932Z,62.55
2022-10-29T04:41:39.913Z,65.45
2022-10-29T04:44:07.977Z,95.35
2022-10-29T04:46:36.115Z,105.43
2022-10-29T04:49:04.310Z,80.32
2022-10-29T04:51:33.728Z,73.20
2022-10-29T04:54:01.894Z,76.38
2022-10-29T04:56:30.829Z,107.65
2022-10-29T04:58:58.825Z,88.80
2022-10-29T05:01:27.129Z,64.35
2022-10-29T05:03:58.932Z,83.15
2022-10-29T05:06:28.545Z,95.55
2022-10-29T05:08:57.894Z,69.18
2022-10-29T05:11:26.164Z,68.38
2022-10-29T05:13:54.644Z,68.32
2022-10-29T05:16:22.658Z,66.38
2022-10-29T05:18:50.731Z,50.78
2022-10-29T05:21:18.825Z,59.47
2022-10-29T05:23:46.827Z,83.28
2022-10-29T05:26:16.273Z,89.72
2022-10-29T05:28:44.274Z,64.60
2022-10-29T05:31:12.350Z,60.67
2022-10-29T05:33:40.386Z,56.10
2022-10-29T05:36:08.922Z,65.40
2022-10-29T05:38:37.195Z,67.45
2022-10-29T05:41:05.331Z,52.47
2022-10-29T05:43:34.884Z,49.40
2022-10-29T05:46:04.669Z,57.42
2022-10-29T05:48:32.892Z,49.88
2022-10-29T05:51:00.992Z,53.88
2022-10-29T05:53:29.043Z,47.38
2022-10-29T05:55:57.410Z,67.82
2022-10-29T05:58:25.537Z,44.13
2022-10-29T06:00:54.943Z,42.90
2022-10-29T06:03:24.060Z,35.33
2022-10-29T06:05:52.411Z,42.70
2022-10-29T06:08:20.609Z,44.67
2022-10-29T06:10:48.733Z,35.45
2022-10-29T06:13:19.085Z,35.70
2022-10-29T06:15:47.921Z,34.90
2022-10-29T06:18:17.589Z,38.33
2022-10-29T06:20:45.755Z,35.78
2022-10-29T06:23:13.812Z,32.65
2022-10-29T06:25:41.845Z,35.83
2022-10-29T06:28:12.170Z,32.95
2022-10-29T06:30:40.230Z,34.15
2022-10-29T06:33:08.260Z,32.22
2022-10-29T06:35:37.639Z,32.17
2022-10-29T06:38:10.838Z,28.77
2022-10-29T06:40:40.598Z,32.58
2022-10-29T06:43:11.064Z,32.67
2022-10-29T06:45:39.122Z,30.80
2022-10-29T06:48:07.935Z,30.52
2022-10-29T06:50:37.429Z,33.17
2022-10-29T06:53:07.603Z,29.15
2022-10-29T06:55:36.037Z,27.80
2022-10-29T06:58:06.191Z,35.33
2022-10-29T07:00:35.372Z,32.58
2022-10-29T07:03:05.128Z,27.27
2022-10-29T07:05:33.854Z,29.45
2022-10-29T07:08:03.709Z,26.13
2022-10-29T07:10:33.813Z,25.48
2022-10-29T07:13:02.477Z,24.83
2022-10-29T07:15:31.260Z,26.13
2022-10-29T07:18:00.894Z,25.48
2022-10-29T07:20:30.200Z,31.35
2022-10-29T07:22:59.473Z,29.52
2022-10-29T07:25:29.234Z,32.92
2022-10-29T07:28:03.594Z,28.83
2022-10-29T07:30:31.823Z,39.58
2022-10-29T07:32:59.891Z,35.40
2022-10-29T07:35:27.850Z,29.58
2022-10-29T07:38:03.802Z,29.23
2022-10-29T07:40:38.547Z,30.80
2022-10-29T07:43:06.537Z,41.83
2022-10-29T07:45:34.774Z,34.10
2022-10-29T07:48:06.827Z,27.95
2022-10-29T07:50:35.255Z,23.48
2022-10-29T07:53:04.583Z,26.45
2022-10-29T07:55:32.663Z,25.75
2022-10-29T07:58:03.776Z,27.90
2022-10-29T08:00:33.002Z,25.17
2022-10-29T08:03:01.016Z,28.10
2022-10-29T08:05:30.128Z,26.23
2022-10-29T08:07:59.394Z,23.67
2022-10-29T08:10:28.401Z,27.88
2022-10-29T08:12:58.519Z,26.08
2022-10-29T08:15:28.986Z,24.30
2022-10-29T08:17:57.737Z,23.88
2022-10-29T08:20:28.834Z,27.42
2022-10-29T08:22:57.148Z,26.48
2022-10-29T08:25:26.187Z,28.20
2022-10-29T08:28:01.495Z,32.17
2022-10-29T08:30:31.651Z,22.88
2022-10-29T08:33:00.540Z,36.80
2022-10-29T08:35:29.351Z,29.80
2022-10-29T08:37:57.811Z,27.83
2022-10-29T08:40:32.178Z,34.35
2022-10-29T08:43:26.933Z,33.72
2022-10-29T08:45:57.407Z,33.07
2022-10-29T08:48:46.541Z,31.50
2022-10-29T08:51:19.645Z,26.30
2022-10-29T08:53:58.805Z,27.20
2022-10-29T08:56:40.741Z,27.38
2022-10-29T08:59:14.808Z,23.10
2022-10-29T09:01:44.832Z,23.37
2022-10-29T09:04:24.961Z,20.02
2022-10-29T09:07:28.722Z,20.80
2022-10-29T09:10:03.549Z,22.48
2022-10-29T09:12:50.925Z,17.35
2022-10-29T09:15:41.218Z,16.48
2022-10-29T09:18:32.687Z,20.40
2022-10-29T09:21:09.388Z,20.70
2022-10-29T09:24:08.851Z,22.95
2022-10-29T09:26:45.142Z,20.27
2022-10-29T09:29:44.385Z,20.63
2022-10-29T09:32:17.303Z,21.00
2022-10-29T09:34:50.814Z,15.55
2022-10-29T09:37:23.081Z,24.90
2022-10-29T09:39:51.283Z,22.95
2022-10-29T09:42:24.285Z,21.30
2022-10-29T09:44:55.862Z,20.25
2022-10-29T09:47:38.135Z,21.00
2022-10-29T09:50:17.530Z,23.92
2022-10-29T09:52:48.254Z,21.77
2022-10-29T09:55:21.566Z,23.35
2022-10-29T09:57:50.098Z,19.02
2022-10-29T10:00:22.155Z,21.17
2022-10-29T10:02:56.052Z,21.10
2022-10-29T10:05:28.876Z,21.80
2022-10-29T10:08:09.164Z,22.38
2022-10-29T10:10:40.651Z,16.00
2022-10-29T10:13:17.200Z,19.08
2022-10-29T10:15:53.412Z,18.75
2022-10-29T10:18:23.919Z,23.23
2022-10-29T10:21:04.769Z,21.95
2022-10-29T10:23:44.565Z,23.35
2022-10-29T10:26:33.467Z,24.33
2022-10-29T10:29:13.181Z,24.30
2022-10-29T10:31:41.857Z,21.73
2022-10-29T10:34:15.312Z,20.40
2022-10-29T10:36:49.789Z,18.25
2022-10-29T10:39:24.500Z,13.13
2022-10-29T10:41:53.352Z,12.35
2022-10-29T10:44:23.462Z,16.38
2022-10-29T10:46:55.148Z,17.70
2022-10-29T10:49:31.467Z,16.15
2022-10-29T10:52:03.764Z,17.20
2022-10-29T10:54:37.158Z,11.60
2022-10-29T10:57:19.518Z,16.42
2022-10-29T10:59:55.969Z,11.85
2022-10-29T11:02:30.888Z,15.30
2022-10-29T11:05:05.161Z,14.10
2022-10-29T11:07:43.341Z,14.95
2022-10-29T11:10:15.276Z,13.73
2022-10-29T11:12:47.661Z,15.13
2022-10-29T11:15:19.633Z,14.50
2022-10-29T11:17:54.820Z,12.95
2022-10-29T11:20:26.993Z,13.90
2022-10-29T11:23:09.892Z,10.70
2022-10-29T11:25:42.761Z,14.82
2022-10-29T11:28:30.905Z,15.07
2022-10-29T11:31:08.816Z,10.00
2022-10-29T11:33:47.343Z,9.02
2022-10-29T11:36:20.741Z,8.40
2022-10-29T11:38:55.089Z,11.73
2022-10-29T11:41:33.407Z,13.23
2022-10-29T11:44:01.661Z,11.05
2022-10-29T11:46:44.745Z,9.13
2022-10-29T11:49:25.143Z,11.75
2022-10-29T11:52:06.602Z,11.70
2022-10-29T11:54:54.441Z,9.80
2022-10-29T11:57:29.093Z,16.00
2022-10-29T12:00:17.015Z,9.50
2022-10-29T12:03:17.935Z,14.88
2022-10-29T12:05:53.319Z,15.95
2022-10-29T12:08:35.087Z,13.15
2022-10-29T12:11:12.415Z,16.70
2022-10-29T12:13:55.015Z,13.73
2022-10-29T12:16:36.445Z,9.88
2022-10-29T12:19:15.970Z,14.05
2022-10-29T12:21:51.940Z,10.45
2022-10-29T12:24:51.100Z,16.83
2022-10-29T12:27:24.930Z,8.38
2022-10-29T12:30:00.071Z,10.87
2022-10-29T12:32:36.895Z,11.23
2022-10-29T12:35:18.535Z,7.57
2022-10-29T12:37:56.795Z,9.05
2022-10-29T12:40:29.511Z,15.35
2022-10-29T12:43:05.440Z,19.85
2022-10-29T12:45:48.091Z,12.43
2022-10-29T12:48:38.597Z,16.80
2022-10-29T12:51:17.159Z,21.58
2022-10-29T12:54:01.240Z,20.38
2022-10-29T12:56:30.780Z,17.63
2022-10-29T12:59:29.950Z,15.93
2022-10-29T13:02:18.211Z,12.35
2022-10-29T13:05:19.693Z,18.38
2022-10-29T13:08:27.886Z,20.80
2022-10-29T13:10:57.610Z,31.80
2022-10-29T13:14:01.334Z,30.42
2022-10-29T13:16:31.733Z,32.42
2022-10-29T13:19:15.917Z,29.85
2022-10-29T13:22:28.189Z,28.15
2022-10-29T13:25:30.030Z,32.38
2022-10-29T13:27:58.320Z,35.58
2022-10-29T13:30:29.207Z,37.15
2022-10-29T13:32:57.783Z,42.13
2022-10-29T13:35:42.499Z,39.92
2022-10-29T13:38:17.401Z,36.95
2022-10-29T13:41:11.941Z,32.72
2022-10-29T13:46:30.738Z,34.88
2022-10-29T13:49:01.666Z,36.20
2022-10-29T13:51:36.202Z,37.40
2022-10-29T13:54:09.768Z,36.33
2022-10-29T13:56:44.676Z,29.15
2022-10-29T13:59:22.302Z,29.23
2022-10-29T14:02:02.452Z,30.30
2022-10-29T14:04:38.643Z,34.47
2022-10-29T14:07:15.588Z,30.83
2022-10-29T14:09:47.567Z,20.50
2022-10-29T14:12:20.233Z,25.98
2022-10-29T14:14:57.535Z,17.58
2022-10-29T14:17:26.988Z,21.35
2022-10-29T14:19:55.143Z,22.85
2022-10-29T14:22:29.963Z,19.05
2022-10-29T14:24:57.955Z,16.23
2022-10-29T14:27:25.900Z,12.57
2022-10-29T14:29:55.619Z,13.38
2022-10-29T14:32:24.030Z,17.88
2022-10-29T14:34:54.603Z,14.93
2022-10-29T14:37:29.598Z,11.60
2022-10-29T14:40:01.122Z,10.05
2022-10-29T14:42:32.939Z,9.98
2022-10-29T14:45:03.300Z,10.15
2022-10-29T14:47:34.627Z,10.85
2022-10-29T14:50:07.291Z,15.13
2022-10-29T14:52:39.761Z,14.48
2022-10-29T14:55:09.923Z,16.95
2022-10-29T14:57:42.780Z,20.42
2022-10-29T15:00:24.811Z,15.70
2022-10-29T15:02:55.166Z,20.42
2022-10-29T15:05:27.634Z,18.30
2022-10-29T15:08:06.793Z,43.72
2022-10-29T15:10:46.318Z,39.55
2022-10-29T15:13:30.599Z,36.20
2022-10-29T15:16:02.091Z,35.45
2022-10-29T15:18:31.960Z,28.83
2022-10-29T15:21:03.556Z,23.55
2022-10-29T15:23:35.461Z,35.15
2022-10-29T15:26:05.327Z,45.67
2022-10-29T15:28:40.074Z,38.83
2022-10-29T15:33:38.362Z,42.83
2022-10-29T15:36:08.627Z,56.85
2022-10-29T15:39:10.637Z,61.67
2022-10-29T15:41:46.070Z,39.15
2022-10-29T15:44:40.526Z,51.10
2022-10-29T15:47:28.048Z,85.05
2022-10-29T15:49:56.468Z,71.55
2022-10-29T15:52:28.925Z,66.38
2022-10-29T15:54:56.937Z,59.05
2022-10-29T15:57:24.930Z,62.95
2022-10-29T15:59:57.299Z,101.72
2022-10-29T16:02:26.920Z,117.88
2022-10-29T16:04:55.002Z,127.43
2022-10-29T16:07:23.045Z,84.60
2022-10-29T16:09:55.703Z,66.60
2022-10-29T16:12:23.685Z,63.05
2022-10-29T16:14:51.730Z,91.72
2022-10-29T16:17:22.080Z,59.95
2022-10-29T16:19:50.015Z,58.25
2022-10-29T16:22:22.208Z,69.88
2022-10-29T16:24:50.244Z,76.43
2022-10-29T16:27:19.704Z,99.03
2022-10-29T16:29:49.717Z,114.85
2022-10-29T16:32:19.914Z,94.60
2022-10-29T16:34:48.235Z,97.95
2022-10-29T16:37:17.486Z,101.53
2022-10-29T16:39:45.759Z,90.00
2022-10-29T16:42:29.870Z,59.67
2022-10-29T16:44:58.041Z,89.50
2022-10-29T16:47:26.111Z,121.45
2022-10-29T16:49:54.286Z,119.70
2022-10-29T16:52:25.253Z,109.85
2022-10-29T16:54:55.606Z,144.02
2022-10-29T16:57:23.863Z,161.23
2022-10-29T16:59:53.277Z,98.18
2022-10-29T17:02:21.265Z,70.05
2022-10-29T17:04:49.242Z,62.17
2022-10-29T17:07:17.846Z,60.20
2022-10-29T17:09:45.831Z,48.80
2022-10-29T17:12:13.917Z,43.85
2022-10-29T17:14:41.971Z,34.70
2022-10-29T17:17:11.348Z,62.85
2022-10-29T17:19:39.281Z,43.60
2022-10-29T17:22:10.665Z,41.60
2022-10-29T17:24:38.658Z,35.40
2022-10-29T17:27:06.690Z,33.83
2022-10-29T17:29:36.440Z,31.17
2022-10-29T17:32:05.055Z,27.88
2022-10-29T17:34:35.051Z,26.17
2022-10-29T17:37:03.005Z,31.65
2022-10-29T17:39:31.126Z,37.55
2022-10-29T17:41:59.259Z,43.50
2022-10-29T17:44:27.652Z,45.15
2022-10-29T17:46:56.422Z,52.67
2022-10-29T17:49:25.853Z,54.78
2022-10-29T17:51:55.320Z,63.97
2022-10-29T17:54:23.436Z,56.38
2022-10-29T17:56:52.277Z,59.72
2022-10-29T17:59:20.591Z,70.03
2022-10-29T18:01:48.959Z,82.65
2022-10-29T18:04:17.150Z,76.93
2022-10-29T18:06:45.228Z,85.80
2022-10-29T18:09:17.177Z,84.57
2022-10-29T18:14:17.535Z,83.60
2022-10-29T18:16:45.827Z,76.10
2022-10-29T18:19:13.892Z,79.03
2022-10-29T18:21:41.922Z,87.28
2022-10-29T18:24:10.598Z,72.95
2022-10-29T18:26:40.106Z,76.32
2022-10-29T18:29:10.304Z,84.82
2022-10-29T18:31:40.270Z,107.28
2022-10-29T18:34:09.170Z,92.72
2022-10-29T18:36:37.252Z,97.75
2022-10-29T18:39:06.758Z,95.13
2022-10-29T18:41:35.845Z,97.95
2022-10-29T18:44:05.750Z,106.03
2022-10-29T18:46:34.017Z,95.30
2022-10-29T18:49:02.222Z,100.55
2022-10-29T18:51:32.025Z,96.10
2022-10-29T18:54:00.810Z,96.53
2022-10-29T18:56:30.625Z,90.53
2022-10-29T18:58:59.952Z,87.90
2022-10-29T19:01:32.035Z,91.22
2022-10-29T19:04:01.926Z,92.97
2022-10-29T19:06:31.453Z,95.20
2022-10-29T19:09:01.819Z,61.55
2022-10-29T19:11:30.714Z,48.78
2022-10-29T19:14:00.388Z,43.40
2022-10-29T19:16:31.631Z,42.00
2022-10-29T19:19:01.308Z,48.63
2022-10-29T19:21:29.469Z,47.35
2022-10-29T19:23:59.451Z,46.53
2022-10-29T19:26:29.218Z,44.90
2022-10-29T19:28:57.856Z,46.95
2022-10-29T19:31:27.754Z,45.40
2022-10-29T19:33:58.859Z,43.28
2022-10-29T19:36:28.347Z,47.83
2022-10-29T19:38:57.061Z,47.42
2022-10-29T19:41:25.553Z,44.67
2022-10-29T19:43:53.831Z,42.25
2022-10-29T19:46:24.250Z,43.67
2022-10-29T19:48:53.867Z,46.60
2022-10-29T19:51:23.858Z,50.55
2022-10-29T19:53:52.495Z,49.70
2022-10-29T19:56:21.980Z,52.85
2022-10-29T19:58:50.180Z,61.33
2022-10-29T20:01:19.868Z,74.20
2022-10-29T20:03:48.677Z,68.00
2022-10-29T20:06:18.278Z,64.65
2022-10-29T20:08:47.659Z,72.53
2022-10-29T20:11:15.638Z,77.22
2022-10-29T20:13:43.863Z,81.63
2022-10-29T20:16:14.594Z,73.93
2022-10-29T20:18:42.498Z,69.20
2022-10-29T20:21:10.521Z,62.83
2022-10-29T20:23:38.712Z,70.05
2022-10-29T20:26:08.702Z,60.92
2022-10-29T20:28:37.017Z,55.40
2022-10-29T20:31:12.807Z,52.05
2022-10-29T20:33:40.786Z,50.75
2022-10-29T20:36:09.457Z,53.15
2022-10-29T20:38:37.687Z,51.88
2022-10-29T20:41:07.096Z,51.15
2022-10-29T20:43:35.136Z,53.15
2022-10-29T20:46:04.205Z,55.25
2022-10-29T20:48:32.861Z,54.50
2022-10-29T20:51:00.945Z,56.20
2022-10-29T20:53:29.028Z,54.13
2022-10-29T20:55:57.136Z,54.08
2022-10-29T20:58:26.578Z,56.70
2022-10-29T21:00:54.946Z,55.25
2022-10-29T21:03:22.918Z,54.70
2022-10-29T21:05:50.832Z,56.00
2022-10-29T21:08:18.804Z,51.50
2022-10-29T21:10:46.808Z,53.88
2022-10-29T21:13:14.912Z,54.65
2022-10-29T21:15:44.401Z,58.15
2022-10-29T21:18:12.389Z,52.03
2022-10-29T21:20:40.377Z,52.97
2022-10-29T21:23:08.450Z,48.92
2022-10-29T21:25:36.483Z,47.17
2022-10-29T21:28:04.552Z,43.03
2022-10-29T21:30:32.602Z,39.97
2022-10-29T21:33:01.929Z,41.90
2022-10-29T21:35:29.895Z,46.25
2022-10-29T21:37:58.223Z,42.67
2022-10-29T21:40:26.585Z,41.78
2022-10-29T21:42:54.910Z,40.13
2022-10-29T21:45:23.216Z,39.60
2022-10-29T21:47:51.278Z,39.67
2022-10-29T21:50:20.665Z,39.65
2022-10-29T21:52:48.608Z,37.13
2022-10-29T21:55:16.621Z,38.85
2022-10-29T21:57:45.109Z,38.83
2022-10-29T22:00:15.520Z,38.47
2022-10-29T22:02:43.561Z,38.55
2022-10-29T22:05:11.853Z,38.10
2022-10-29T22:07:41.398Z,41.25
2022-10-29T22:10:09.923Z,38.42
2022-10-29T22:12:38.045Z,39.80
2022-10-29T22:15:07.244Z,37.63
2022-10-29T22:17:35.200Z,36.75
2022-10-29T22:20:03.142Z,43.75
2022-10-29T22:22:31.263Z,44.83
2022-10-29T22:25:00.578Z,43.92
2022-10-29T22:27:28.583Z,46.40
2022-10-29T22:29:56.540Z,44.95
2022-10-29T22:32:24.541Z,44.47
2022-10-29T22:34:52.567Z,43.90
2022-10-29T22:37:20.658Z,40.95
2022-10-29T22:39:48.724Z,42.20
2022-10-29T22:42:18.114Z,38.28
2022-10-29T22:44:46.121Z,36.08
2022-10-29T22:47:14.129Z,41.53
2022-10-29T22:49:42.181Z,45.80
2022-10-29T22:52:10.203Z,44.17
2022-10-29T22:54:38.248Z,40.60
2022-10-29T22:57:06.293Z,39.58
2022-10-29T22:59:35.594Z,38.45
2022-10-29T23:02:03.773Z,38.35
2022-10-29T23:04:31.910Z,39.05
2022-10-29T23:07:02.118Z,37.13
2022-10-29T23:09:30.374Z,37.72
2022-10-29T23:12:01.492Z,37.13
2022-10-29T23:14:29.480Z,34.00
2022-10-29T23:16:58.810Z,35.60
2022-10-29T23:19:26.942Z,33.08
2022-10-29T23:21:54.904Z,38.95
2022-10-29T23:24:22.881Z,36.95
2022-10-29T23:26:50.921Z,38.35
2022-10-29T23:29:19.009Z,38.10
2022-10-29T23:31:46.967Z,42.13
2022-10-29T23:34:16.618Z,36.05
2022-10-29T23:36:44.794Z,39.90
2022-10-29T23:39:13.141Z,37.78
2022-10-29T23:41:41.208Z,41.83
2022-10-29T23:44:09.215Z,36.97
2022-10-29T23:46:37.234Z,39.83
2022-10-29T23:49:05.276Z,35.58
2022-10-29T23:54:07.562Z,39.55
2022-10-29T23:56:35.537Z,41.08
2022-10-29T23:59:03.646Z,39.45
